createdAt,value
2017-12-20T00:00:02.956Z,9.17
2017-12-20T00:02:31.249Z,7.98
2017-12-20T00:04:59.565Z,8.92
2017-12-20T00:07:27.852Z,8.55
2017-12-20T00:09:56.162Z,7.85
2017-12-20T00:12:24.451Z,7.82
2017-12-20T00:14:52.761Z,8.10
2017-12-20T00:17:21.048Z,7.80
2017-12-20T00:19:49.360Z,7.45
2017-12-20T00:22:17.650Z,8.65
2017-12-20T00:24:45.989Z,7.12
2017-12-20T00:27:14.282Z,7.85
2017-12-20T00:29:42.572Z,7.77
2017-12-20T00:32:10.897Z,7.43
2017-12-20T00:34:38.415Z,7.70
2017-12-20T00:37:06.754Z,7.53
2017-12-20T00:39:35.028Z,8.17
2017-12-20T00:42:03.340Z,7.68
2017-12-20T00:44:31.632Z,6.82
2017-12-20T00:46:59.948Z,7.33
2017-12-20T00:49:28.240Z,7.78
2017-12-20T00:51:56.557Z,8.08
2017-12-20T00:54:24.881Z,7.82
2017-12-20T00:56:53.163Z,8.05
2017-12-20T00:59:21.485Z,8.52
2017-12-20T01:01:49.768Z,8.22
2017-12-20T01:04:18.084Z,7.02
2017-12-20T01:06:46.376Z,8.27
2017-12-20T01:09:14.727Z,7.37
2017-12-20T01:11:43.021Z,7.10
2017-12-20T01:14:11.305Z,7.28
2017-12-20T01:16:39.617Z,7.72
2017-12-20T01:19:07.916Z,8.05
2017-12-20T01:21:36.230Z,8.15
2017-12-20T01:24:04.538Z,8.13
2017-12-20T01:26:32.873Z,7.80
2017-12-20T01:29:01.153Z,8.13
2017-12-20T01:31:29.448Z,7.70
2017-12-20T01:33:57.772Z,7.40
2017-12-20T01:36:26.060Z,7.78
2017-12-20T01:38:54.405Z,8.15
2017-12-20T01:41:22.696Z,8.08
2017-12-20T01:43:50.986Z,8.20
2017-12-20T01:46:19.297Z,9.03
2017-12-20T01:48:47.592Z,8.73
2017-12-20T01:51:15.905Z,8.68
2017-12-20T01:53:44.188Z,8.53
2017-12-20T01:56:12.501Z,7.45
2017-12-20T01:58:40.796Z,8.33
2017-12-20T02:01:09.119Z,8.18
2017-12-20T02:03:37.408Z,7.72
2017-12-20T02:06:05.696Z,8.05
2017-12-20T02:08:34.005Z,7.53
2017-12-20T02:11:02.306Z,7.30
2017-12-20T02:13:29.844Z,7.22
2017-12-20T02:15:58.128Z,6.67
2017-12-20T02:18:26.492Z,6.17
2017-12-20T02:20:54.777Z,5.83
2017-12-20T02:23:23.064Z,5.95
2017-12-20T02:25:51.372Z,5.72
2017-12-20T02:28:19.651Z,5.82
2017-12-20T02:30:47.956Z,5.67
2017-12-20T02:33:28.148Z,5.72
2017-12-20T02:35:56.497Z,7.25
2017-12-20T02:38:40.785Z,6.83
2017-12-20T02:41:09.169Z,5.42
2017-12-20T02:43:40.957Z,6.55
2017-12-20T02:46:09.303Z,5.37
2017-12-20T02:48:37.601Z,6.48
2017-12-20T02:51:05.898Z,5.62
2017-12-20T02:53:34.206Z,5.50
2017-12-20T02:56:02.496Z,6.08
2017-12-20T02:58:30.803Z,5.22
2017-12-20T03:00:59.088Z,6.53
2017-12-20T03:03:27.391Z,5.93
2017-12-20T03:05:55.679Z,6.58
2017-12-20T03:08:23.996Z,6.87
2017-12-20T03:10:52.276Z,5.72
2017-12-20T03:13:20.592Z,6.37
2017-12-20T03:15:48.917Z,6.03
2017-12-20T03:18:17.193Z,6.03
2017-12-20T03:20:45.500Z,6.53
2017-12-20T03:23:13.788Z,6.47
2017-12-20T03:25:42.104Z,6.23
2017-12-20T03:28:10.379Z,5.93
2017-12-20T03:30:38.741Z,6.15
2017-12-20T03:33:07.031Z,6.75
2017-12-20T03:35:35.329Z,5.72
2017-12-20T03:38:03.637Z,6.48
2017-12-20T03:40:31.920Z,6.45
2017-12-20T03:43:00.509Z,6.30
2017-12-20T03:45:28.790Z,5.63
2017-12-20T03:47:57.095Z,5.92
2017-12-20T03:50:24.632Z,5.95
2017-12-20T03:52:53.268Z,7.02
2017-12-20T03:55:21.563Z,7.03
2017-12-20T03:57:49.848Z,6.82
2017-12-20T04:00:18.168Z,6.12
2017-12-20T04:02:46.452Z,6.50
2017-12-20T04:05:14.752Z,6.38
2017-12-20T04:07:43.042Z,9.45
2017-12-20T04:10:11.372Z,7.67
2017-12-20T04:12:39.665Z,8.12
2017-12-20T04:15:07.949Z,8.13
2017-12-20T04:17:36.265Z,7.97
2017-12-20T04:20:04.556Z,7.75
2017-12-20T04:22:32.865Z,6.53
2017-12-20T04:25:01.163Z,6.05
2017-12-20T04:27:29.493Z,16.22
2017-12-20T04:29:57.784Z,13.25
2017-12-20T04:32:26.149Z,9.98
2017-12-20T04:34:54.453Z,9.92
2017-12-20T04:37:22.755Z,8.43
2017-12-20T04:39:51.081Z,9.17
2017-12-20T04:42:19.395Z,7.43
2017-12-20T04:44:47.755Z,7.55
2017-12-20T04:47:16.041Z,8.08
2017-12-20T04:49:44.326Z,8.22
2017-12-20T04:52:12.632Z,7.75
2017-12-20T04:54:40.921Z,7.83
2017-12-20T04:57:09.238Z,7.97
2017-12-20T04:59:36.759Z,8.17
2017-12-20T05:02:05.109Z,8.42
2017-12-20T05:04:33.400Z,8.68
2017-12-20T05:07:01.701Z,9.10
2017-12-20T05:09:30.017Z,8.37
2017-12-20T05:11:58.308Z,7.92
2017-12-20T05:14:26.611Z,7.62
2017-12-20T05:16:54.900Z,9.08
2017-12-20T05:19:23.213Z,8.65
2017-12-20T05:21:51.511Z,9.45
2017-12-20T05:24:19.804Z,9.02
2017-12-20T05:26:48.116Z,9.65
2017-12-20T05:29:16.404Z,9.05
2017-12-20T05:31:44.711Z,9.28
2017-12-20T05:34:12.992Z,8.80
2017-12-20T05:36:41.301Z,9.12
2017-12-20T05:39:09.586Z,8.42
2017-12-20T05:41:37.927Z,8.82
2017-12-20T05:44:06.208Z,9.45
2017-12-20T05:46:34.496Z,9.33
2017-12-20T05:49:02.039Z,9.92
2017-12-20T05:51:30.336Z,10.90
2017-12-20T05:53:58.664Z,10.03
2017-12-20T05:56:26.959Z,9.92
2017-12-20T05:58:55.268Z,10.48
2017-12-20T06:01:22.794Z,10.82
2017-12-20T06:03:51.108Z,10.33
2017-12-20T06:06:19.400Z,10.73
2017-12-20T06:08:47.713Z,11.60
2017-12-20T06:11:15.240Z,13.42
2017-12-20T06:13:43.579Z,10.47
2017-12-20T06:16:11.868Z,11.47
2017-12-20T06:18:40.160Z,12.62
2017-12-20T06:21:08.468Z,12.95
2017-12-20T06:23:36.759Z,14.25
2017-12-20T06:26:05.071Z,14.45
2017-12-20T06:28:33.369Z,12.90
2017-12-20T06:31:01.687Z,15.33
2017-12-20T06:33:29.981Z,46.15
2017-12-20T06:35:58.288Z,26.27
2017-12-20T06:38:26.580Z,21.33
2017-12-20T06:40:54.892Z,37.62
2017-12-20T06:43:23.185Z,30.52
2017-12-20T06:45:51.505Z,54.10
2017-12-20T06:48:19.791Z,49.55
2017-12-20T06:50:48.099Z,33.68
2017-12-20T06:53:16.389Z,22.32
2017-12-20T06:55:44.749Z,17.85
2017-12-20T06:58:13.041Z,19.95
2017-12-20T07:00:41.361Z,17.23
2017-12-20T07:03:09.647Z,18.35
2017-12-20T07:05:37.963Z,20.33
2017-12-20T07:08:06.247Z,19.33
2017-12-20T07:10:34.556Z,18.38
2017-12-20T07:13:02.852Z,19.18
2017-12-20T07:15:31.159Z,18.88
2017-12-20T07:17:59.444Z,17.07
2017-12-20T07:20:27.751Z,20.67
2017-12-20T07:22:56.040Z,20.23
2017-12-20T07:25:24.398Z,24.77
2017-12-20T07:27:52.688Z,20.12
2017-12-20T07:30:20.988Z,20.87
2017-12-20T07:32:49.298Z,25.83
2017-12-20T07:35:17.598Z,23.90
2017-12-20T07:37:45.916Z,22.77
2017-12-20T07:40:14.200Z,23.97
2017-12-20T07:42:41.756Z,21.85
2017-12-20T07:45:10.057Z,23.15
2017-12-20T07:47:38.378Z,25.15
2017-12-20T07:50:06.673Z,28.53
2017-12-20T07:52:34.975Z,25.58
2017-12-20T07:55:03.271Z,23.50
2017-12-20T07:57:31.589Z,20.30
2017-12-20T07:59:59.880Z,31.98
2017-12-20T08:02:28.202Z,19.93
2017-12-20T08:04:56.514Z,19.42
2017-12-20T08:07:24.829Z,21.57
2017-12-20T08:09:53.117Z,22.22
2017-12-20T08:12:21.436Z,23.48
2017-12-20T08:14:49.744Z,21.77
2017-12-20T08:17:18.067Z,21.92
2017-12-20T08:19:45.597Z,19.97
2017-12-20T08:22:13.905Z,19.37
2017-12-20T08:24:42.196Z,22.57
2017-12-20T08:27:10.504Z,24.58
2017-12-20T08:29:38.793Z,20.85
2017-12-20T08:32:07.108Z,26.55
2017-12-20T08:34:35.405Z,38.87
2017-12-20T08:37:03.732Z,115.67
2017-12-20T08:39:32.020Z,31.87
2017-12-20T08:42:00.335Z,34.92
2017-12-20T08:44:28.628Z,26.62
2017-12-20T08:46:56.998Z,26.67
2017-12-20T08:49:24.496Z,32.58
2017-12-20T08:51:52.812Z,32.50
2017-12-20T08:54:21.116Z,28.02
2017-12-20T08:56:49.431Z,26.50
2017-12-20T08:59:17.727Z,26.87
2017-12-20T09:01:46.077Z,25.90
2017-12-20T09:04:14.372Z,25.13
2017-12-20T09:06:42.664Z,22.17
2017-12-20T09:09:10.987Z,21.77
2017-12-20T09:11:39.275Z,19.88
2017-12-20T09:14:07.592Z,23.10
2017-12-20T09:16:35.880Z,21.30
2017-12-20T09:19:04.202Z,23.55
2017-12-20T09:21:32.499Z,21.15
2017-12-20T09:24:00.816Z,22.48
2017-12-20T09:26:29.116Z,19.33
2017-12-20T09:28:57.438Z,26.47
2017-12-20T09:31:25.744Z,22.08
2017-12-20T09:33:54.064Z,20.43
2017-12-20T09:36:22.357Z,27.92
2017-12-20T09:38:50.672Z,45.93
2017-12-20T09:41:18.980Z,30.40
2017-12-20T09:43:46.528Z,26.27
2017-12-20T09:46:14.825Z,24.67
2017-12-20T09:48:43.148Z,22.70
2017-12-20T09:51:11.440Z,21.82
2017-12-20T09:53:39.772Z,20.42
2017-12-20T09:56:08.064Z,20.08
2017-12-20T09:58:36.392Z,20.70
2017-12-20T10:01:04.689Z,20.95
2017-12-20T10:03:33.014Z,20.32
2017-12-20T10:06:01.326Z,21.50
2017-12-20T10:08:29.644Z,19.65
2017-12-20T10:10:57.935Z,21.07
2017-12-20T10:13:26.256Z,19.45
2017-12-20T10:15:54.553Z,22.20
2017-12-20T10:18:22.872Z,17.50
2017-12-20T10:20:51.172Z,17.32
2017-12-20T10:23:19.539Z,19.36
2017-12-20T10:25:47.072Z,18.82
2017-12-20T10:28:15.396Z,19.18
2017-12-20T10:30:43.689Z,22.95
2017-12-20T10:33:12.004Z,21.43
2017-12-20T10:35:40.299Z,19.42
2017-12-20T10:38:08.611Z,21.40
2017-12-20T10:40:36.900Z,20.18
2017-12-20T10:43:05.196Z,22.53
2017-12-20T10:45:33.512Z,19.83
2017-12-20T10:48:01.808Z,15.28
2017-12-20T10:50:30.128Z,19.07
2017-12-20T10:52:58.429Z,15.70
2017-12-20T10:55:26.744Z,23.05
2017-12-20T10:57:55.031Z,17.52
2017-12-20T11:00:23.352Z,18.02
2017-12-20T11:02:51.639Z,28.58
2017-12-20T11:05:19.960Z,18.20
2017-12-20T11:07:48.260Z,16.62
2017-12-20T11:10:16.576Z,17.00
2017-12-20T11:12:44.869Z,25.44
2017-12-20T11:15:13.184Z,16.48
2017-12-20T11:17:41.496Z,18.83
2017-12-20T11:20:09.812Z,18.00
2017-12-20T11:22:38.117Z,16.57
2017-12-20T11:25:06.428Z,15.12
2017-12-20T11:27:34.728Z,14.57
2017-12-20T11:30:03.060Z,16.82
2017-12-20T11:32:31.364Z,14.60
2017-12-20T11:34:59.676Z,14.44
2017-12-20T11:37:27.976Z,12.90
2017-12-20T11:39:56.292Z,13.93
2017-12-20T11:42:23.826Z,13.06
2017-12-20T11:44:52.136Z,14.36
2017-12-20T11:47:20.431Z,13.24
2017-12-20T11:49:47.985Z,18.76
2017-12-20T11:52:16.290Z,15.82
2017-12-20T11:54:44.591Z,15.52
2017-12-20T11:57:12.916Z,15.04
2017-12-20T11:59:41.206Z,14.30
2017-12-20T12:02:09.515Z,14.50
2017-12-20T12:04:37.820Z,15.90
2017-12-20T12:07:06.135Z,11.75
2017-12-20T12:09:34.452Z,10.98
2017-12-20T12:12:02.772Z,10.88
2017-12-20T12:14:31.080Z,11.86
2017-12-20T12:16:59.411Z,11.15
2017-12-20T12:19:27.704Z,10.08
2017-12-20T12:21:55.988Z,10.70
2017-12-20T12:24:24.301Z,9.24
2017-12-20T12:26:52.596Z,8.98
2017-12-20T12:29:20.909Z,10.40
2017-12-20T12:31:49.195Z,9.34
2017-12-20T12:34:17.513Z,9.18
2017-12-20T12:36:45.807Z,11.30
2017-12-20T12:39:14.104Z,10.18
2017-12-20T12:41:42.421Z,8.37
2017-12-20T12:44:10.720Z,8.08
2017-12-20T12:46:39.035Z,8.50
2017-12-20T12:49:07.328Z,7.92
2017-12-20T12:51:35.652Z,8.27
2017-12-20T12:54:03.948Z,8.60
2017-12-20T12:56:32.284Z,8.93
2017-12-20T12:59:00.580Z,8.68
2017-12-20T13:01:28.863Z,7.94
2017-12-20T13:03:57.172Z,8.24
2017-12-20T13:06:25.469Z,8.52
2017-12-20T13:08:53.032Z,8.90
2017-12-20T13:11:21.342Z,9.32
2017-12-20T13:13:49.657Z,7.96
2017-12-20T13:16:17.949Z,8.08
2017-12-20T13:18:46.263Z,7.67
2017-12-20T13:21:14.544Z,7.68
2017-12-20T13:23:42.891Z,7.92
2017-12-20T13:26:11.184Z,8.72
2017-12-20T13:28:39.485Z,7.92
2017-12-20T13:31:07.794Z,9.48
2017-12-20T13:33:36.083Z,9.04
2017-12-20T13:36:04.384Z,7.62
2017-12-20T13:38:32.680Z,8.08
2017-12-20T13:41:00.997Z,7.18
2017-12-20T13:43:29.283Z,6.96
2017-12-20T13:45:56.875Z,6.24
2017-12-20T13:48:25.168Z,7.00
2017-12-20T13:50:53.456Z,6.32
2017-12-20T13:53:21.760Z,7.40
2017-12-20T13:55:50.040Z,7.82
2017-12-20T13:58:18.351Z,8.43
2017-12-20T14:00:46.628Z,7.82
2017-12-20T14:03:14.944Z,8.33
2017-12-20T14:05:43.240Z,10.42
2017-12-20T14:08:11.548Z,11.66
2017-12-20T14:10:39.832Z,8.22
2017-12-20T14:13:08.167Z,9.76
2017-12-20T14:15:36.463Z,10.80
2017-12-20T14:18:04.819Z,8.82
2017-12-20T14:20:33.118Z,8.68
2017-12-20T14:23:01.405Z,10.50
2017-12-20T14:25:29.708Z,8.48
2017-12-20T14:27:58.004Z,8.52
2017-12-20T14:30:26.319Z,9.37
2017-12-20T14:32:54.620Z,10.26
2017-12-20T14:35:22.937Z,10.80
2017-12-20T14:37:51.225Z,10.26
2017-12-20T14:40:19.575Z,10.52
2017-12-20T14:42:47.867Z,9.57
2017-12-20T14:45:16.164Z,10.92
2017-12-20T14:47:44.494Z,10.12
2017-12-20T14:50:12.837Z,10.42
2017-12-20T14:52:40.364Z,10.40
2017-12-20T14:55:08.660Z,11.26
2017-12-20T14:57:36.984Z,11.12
2017-12-20T15:00:05.277Z,11.02
2017-12-20T15:02:33.610Z,9.66
2017-12-20T15:05:01.901Z,10.72
2017-12-20T15:07:30.201Z,12.90
2017-12-20T15:09:58.511Z,8.83
2017-12-20T15:12:26.808Z,8.78
2017-12-20T15:14:55.120Z,9.53
2017-12-20T15:17:23.423Z,11.93
2017-12-20T15:19:51.748Z,12.08
2017-12-20T15:22:20.086Z,34.82
2017-12-20T15:24:48.404Z,10.28
2017-12-20T15:27:16.696Z,7.73
2017-12-20T15:29:44.993Z,8.20
2017-12-20T15:32:13.329Z,7.60
2017-12-20T15:34:41.616Z,7.05
2017-12-20T15:37:09.920Z,6.60
2017-12-20T15:39:38.212Z,9.87
2017-12-20T15:42:06.524Z,10.12
2017-12-20T15:44:34.807Z,11.80
2017-12-20T15:47:03.159Z,6.43
2017-12-20T15:49:31.452Z,23.74
2017-12-20T15:51:59.766Z,17.06
2017-12-20T15:54:28.669Z,22.82
2017-12-20T15:56:56.956Z,9.58
2017-12-20T15:59:25.268Z,12.00
2017-12-20T16:01:53.572Z,30.66
2017-12-20T16:04:21.889Z,9.97
2017-12-20T16:06:50.192Z,11.22
2017-12-20T16:09:18.508Z,8.82
2017-12-20T16:11:46.799Z,9.70
2017-12-20T16:14:15.083Z,8.74
2017-12-20T16:16:43.404Z,9.60
2017-12-20T16:19:11.695Z,9.03
2017-12-20T16:21:40.012Z,11.33
2017-12-20T16:24:08.319Z,89.45
2017-12-20T16:26:36.651Z,49.24
2017-12-20T16:29:04.948Z,17.70
2017-12-20T16:31:33.248Z,15.20
2017-12-20T16:34:01.556Z,8.70
2017-12-20T16:36:29.840Z,6.82
2017-12-20T16:38:58.153Z,5.68
2017-12-20T16:41:26.448Z,21.73
2017-12-20T16:43:54.764Z,32.30
2017-12-20T16:46:23.055Z,28.00
2017-12-20T16:48:51.363Z,8.70
2017-12-20T16:51:19.662Z,5.52
2017-12-20T16:53:47.954Z,5.38
2017-12-20T16:56:16.274Z,20.28
2017-12-20T16:58:44.572Z,23.10
2017-12-20T17:01:12.898Z,7.30
2017-12-20T17:03:41.187Z,11.42
2017-12-20T17:06:09.564Z,14.97
2017-12-20T17:08:37.852Z,9.22
2017-12-20T17:11:06.145Z,9.43
2017-12-20T17:13:34.462Z,9.08
2017-12-20T17:16:02.764Z,8.57
2017-12-20T17:18:31.064Z,7.67
2017-12-20T17:20:59.353Z,7.90
2017-12-20T17:23:26.896Z,8.24
2017-12-20T17:25:55.180Z,7.22
2017-12-20T17:28:23.497Z,7.75
2017-12-20T17:30:51.800Z,8.08
2017-12-20T17:33:20.093Z,8.08
2017-12-20T17:35:48.413Z,21.67
2017-12-20T17:38:16.712Z,12.35
2017-12-20T17:40:45.073Z,9.75
2017-12-20T17:43:13.367Z,8.68
2017-12-20T17:45:41.722Z,8.07
2017-12-20T17:48:10.017Z,7.40
2017-12-20T17:50:38.306Z,6.85
2017-12-20T17:53:06.612Z,6.08
2017-12-20T17:55:34.896Z,7.05
2017-12-20T17:58:03.208Z,7.78
2017-12-20T18:00:31.500Z,7.00
2017-12-20T18:02:59.808Z,6.20
2017-12-20T18:05:28.097Z,5.80
2017-12-20T18:07:56.432Z,6.00
2017-12-20T18:10:24.735Z,5.53
2017-12-20T18:12:53.515Z,5.17
2017-12-20T18:15:21.843Z,6.58
2017-12-20T18:17:50.128Z,7.87
2017-12-20T18:20:18.431Z,7.83
2017-12-20T18:22:46.713Z,9.10
2017-12-20T18:25:15.024Z,11.12
2017-12-20T18:27:43.309Z,9.80
2017-12-20T18:30:11.668Z,8.63
2017-12-20T18:32:39.956Z,6.45
2017-12-20T18:35:08.256Z,11.13
2017-12-20T18:37:36.564Z,10.47
2017-12-20T18:40:04.860Z,7.75
2017-12-20T18:42:33.185Z,7.77
2017-12-20T18:45:01.485Z,5.10
2017-12-20T18:47:29.815Z,7.13
2017-12-20T18:49:58.109Z,6.98
2017-12-20T18:52:25.624Z,8.07
2017-12-20T18:54:53.937Z,7.03
2017-12-20T18:57:22.224Z,5.70
2017-12-20T18:59:50.559Z,11.50
2017-12-20T19:02:18.844Z,9.67
2017-12-20T19:04:47.156Z,7.03
2017-12-20T19:07:15.456Z,9.68
2017-12-20T19:09:43.826Z,13.37
2017-12-20T19:12:12.129Z,13.63
2017-12-20T19:14:40.421Z,13.22
2017-12-20T19:17:08.736Z,10.98
2017-12-20T19:19:37.075Z,10.50
2017-12-20T19:22:05.396Z,11.30
2017-12-20T19:24:33.705Z,12.65
2017-12-20T19:27:02.044Z,11.70
2017-12-20T19:29:30.349Z,8.93
2017-12-20T19:31:58.690Z,7.93
2017-12-20T19:34:26.217Z,9.77
2017-12-20T19:36:54.510Z,9.45
2017-12-20T19:39:22.828Z,8.57
2017-12-20T19:41:50.370Z,9.58
2017-12-20T19:44:18.756Z,8.60
2017-12-20T19:46:47.065Z,9.73
2017-12-20T19:49:15.393Z,10.43
2017-12-20T19:51:44.423Z,10.13
2017-12-20T19:54:12.804Z,10.98
2017-12-20T19:56:41.101Z,24.40
2017-12-20T19:59:09.415Z,13.07
2017-12-20T20:01:37.738Z,14.58
2017-12-20T20:04:06.048Z,15.02
2017-12-20T20:06:34.377Z,32.47
2017-12-20T20:09:02.680Z,9.65
2017-12-20T20:11:30.243Z,11.52
2017-12-20T20:13:58.532Z,7.85
2017-12-20T20:16:26.843Z,8.10
2017-12-20T20:18:55.140Z,10.20
2017-12-20T20:21:22.688Z,11.57
2017-12-20T20:23:51.000Z,12.25
2017-12-20T20:26:19.315Z,8.28
2017-12-20T20:28:46.893Z,9.98
2017-12-20T20:31:15.238Z,9.90
2017-12-20T20:33:43.533Z,17.83
2017-12-20T20:36:11.828Z,40.68
2017-12-20T20:38:40.159Z,11.62
2017-12-20T20:41:08.443Z,9.43
2017-12-20T20:43:36.756Z,9.80
2017-12-20T20:46:05.050Z,24.98
2017-12-20T20:48:33.384Z,39.25
2017-12-20T20:51:01.671Z,34.55
2017-12-20T20:53:30.029Z,22.30
2017-12-20T20:55:58.332Z,15.30
2017-12-20T20:58:26.721Z,15.15
2017-12-20T21:00:55.034Z,12.73
2017-12-20T21:03:23.950Z,9.65
2017-12-20T21:05:52.308Z,10.22
2017-12-20T21:08:20.607Z,13.85
2017-12-20T21:10:48.938Z,14.33
2017-12-20T21:13:17.237Z,13.72
2017-12-20T21:15:44.829Z,8.03
2017-12-20T21:18:13.141Z,8.78
2017-12-20T21:20:40.672Z,11.55
2017-12-20T21:23:08.992Z,9.22
2017-12-20T21:25:37.310Z,9.10
2017-12-20T21:28:05.629Z,9.45
2017-12-20T21:30:33.187Z,9.43
2017-12-20T21:33:01.520Z,10.45
2017-12-20T21:35:29.837Z,14.47
2017-12-20T21:37:58.198Z,9.52
2017-12-20T21:40:26.487Z,8.85
2017-12-20T21:42:54.866Z,9.48
2017-12-20T21:45:22.400Z,9.12
2017-12-20T21:47:50.710Z,8.02
2017-12-20T21:50:19.041Z,11.52
2017-12-20T21:52:47.350Z,11.32
2017-12-20T21:55:15.688Z,11.60
2017-12-20T21:57:43.980Z,10.83
2017-12-20T22:00:12.296Z,9.45
2017-12-20T22:02:39.837Z,10.57
2017-12-20T22:05:08.164Z,11.22
2017-12-20T22:07:36.499Z,10.98
2017-12-20T22:10:04.832Z,10.23
2017-12-20T22:12:33.137Z,11.38
2017-12-20T22:15:01.492Z,7.42
2017-12-20T22:17:29.788Z,9.70
2017-12-20T22:19:58.086Z,9.32
2017-12-20T22:22:26.401Z,8.05
2017-12-20T22:24:54.695Z,9.00
2017-12-20T22:27:23.009Z,6.87
2017-12-20T22:29:51.296Z,8.10
2017-12-20T22:32:19.613Z,8.13
2017-12-20T22:34:47.899Z,7.27
2017-12-20T22:37:16.226Z,9.08
2017-12-20T22:39:44.515Z,9.73
2017-12-20T22:42:12.820Z,9.23
2017-12-20T22:44:41.104Z,8.25
2017-12-20T22:47:09.416Z,9.37
2017-12-20T22:49:37.703Z,8.57
2017-12-20T22:52:06.033Z,9.03
2017-12-20T22:54:34.325Z,9.95
2017-12-20T22:57:02.637Z,10.32
2017-12-20T22:59:30.941Z,8.25
2017-12-20T23:01:59.277Z,9.77
2017-12-20T23:04:27.568Z,9.80
2017-12-20T23:06:55.852Z,9.93
2017-12-20T23:09:24.172Z,11.15
2017-12-20T23:11:52.464Z,10.22
2017-12-20T23:14:20.781Z,13.92
2017-12-20T23:16:49.071Z,11.88
2017-12-20T23:19:17.391Z,12.25
2017-12-20T23:21:45.680Z,12.18
2017-12-20T23:24:13.999Z,10.88
2017-12-20T23:26:42.285Z,13.12
2017-12-20T23:29:10.581Z,12.58
2017-12-20T23:31:38.128Z,11.22
2017-12-20T23:34:06.415Z,12.37
2017-12-20T23:36:34.736Z,12.78
2017-12-20T23:39:03.045Z,9.20
2017-12-20T23:41:31.364Z,11.33
2017-12-20T23:43:59.661Z,14.65
2017-12-20T23:46:27.980Z,17.52
2017-12-20T23:48:56.272Z,13.52
2017-12-20T23:51:24.612Z,11.77
2017-12-20T23:53:52.909Z,11.15
2017-12-20T23:56:21.200Z,13.80
2017-12-20T23:58:49.512Z,12.28
